Arrantzale — EBVT — position and weather

sailwx.info

Track history (hours):
 
Tides and Currents Weather Stations Pressure Air Temp Water Temp Dewpoint Dewpoint Depression Visibility Wind Speed Wind Dir Waves Ship Positions

Arrantzale

Last reported at 2017-Jul-24 04:30 UTC. Time now 2017-Jul-24 04:50 UTC.
Position N 43°23' W 001°47'.

Length 32 m.

Type: Fishing. MMSI: 224065290.

Date/timePositionNaut miles runAvg speedWind from/ knotsBaromVisibWave heightAir tempDewpointWater temp
2017-Jul-24 04:30N 43°23' W 001°47'0 0.0
2017-Jul-24 04:00N 43°23' W 001°47'0 0.0
2017-Jul-24 03:30N 43°23' W 001°47'0 0.0
2017-Jul-24 02:59N 43°23' W 001°48'0 0.0
2017-Jul-24 02:29N 43°23' W 001°48'0 0.0
2017-Jul-24 02:00N 43°23' W 001°48'1 2.9
2017-Jul-24 01:30N 43°24' W 001°49'  
2017-Jul-18 17:11N 44°53' W 002°36'60 6.9
2017-Jul-18 08:25N 43°57' W 002°08'4 8.7
2017-Jul-18 08:00N 43°53' W 002°06'4 8.8
2017-Jul-18 07:30N 43°50' W 002°03'4 8.5
2017-Jul-18 07:00N 43°46' W 001°60'4 8.5
2017-Jul-18 06:30N 43°42' W 001°57'4 8.4
2017-Jul-18 06:00N 43°39' W 001°53'9 8.1
2017-Jul-18 04:54N 43°31' W 001°47'2 6.1
2017-Jul-18 04:30N 43°29' W 001°48'1 2.0
2017-Jul-18 04:01N 43°29' W 001°46'0 0.5
2017-Jul-18 03:30N 43°29' W 001°46'1 1.7
2017-Jul-18 03:00N 43°29' W 001°47'2 2.9
2017-Jul-18 02:29N 43°27' W 001°48'0 0.3
2017-Jul-18 02:00N 43°27' W 001°48'0 0.3
2017-Jul-18 01:30N 43°27' W 001°48'1 1.8
2017-Jul-18 00:45N 43°26' W 001°48'2 8.1
2017-Jul-18 00:31N 43°24' W 001°47'1 2.1
2017-Jul-18 00:00N 43°23' W 001°48'0 0.0
2017-Jul-17 23:30N 43°23' W 001°48'0 0.0
2017-Jul-17 23:01N 43°23' W 001°48'0 0.0
2017-Jul-17 22:31N 43°23' W 001°48'0 0.0
2017-Jul-17 22:00N 43°23' W 001°48'0 0.0
2017-Jul-17 21:31N 43°23' W 001°48'0 0.0
2017-Jul-17 21:01N 43°23' W 001°48'0 0.0
2017-Jul-17 20:30N 43°23' W 001°48'0 0.0
2017-Jul-17 19:48N 43°23' W 001°48'0 0.3
2017-Jul-17 19:30N 43°23' W 001°47'45 3.4
2017-Jul-17 06:18N 44°08' W 001°55'3 8.8
2017-Jul-17 05:59N 44°06' W 001°52'38 3.9
2017-Jul-16 20:15N 43°28' W 001°46'310.0
2017-Jul-16 19:59N 43°25' W 001°47'2 5.1
2017-Jul-16 19:30N 43°23' W 001°48'0 0.0
2017-Jul-16 19:00N 43°23' W 001°48'0 0.0
2017-Jul-16 18:30N 43°23' W 001°48'0 0.0
2017-Jul-16 18:00N 43°23' W 001°48'1 2.1
2017-Jul-16 17:30N 43°24' W 001°48'610.4
2017-Jul-16 16:57N 43°29' W 001°51'610.5
2017-Jul-16 16:22N 43°35' W 001°55'610.5
2017-Jul-16 15:48N 43°40' W 001°59'410.4
2017-Jul-16 15:27N 43°43' W 002°02'59 9.7
2017-Jul-16 09:20N 44°37' W 002°37'5 6.0
2017-Jul-16 08:28N 44°41' W 002°40'4 6.5
2017-Jul-16 07:48N 44°46' W 002°40'2 5.5
2017-Jul-16 07:30N 44°47' W 002°41'5 9.4
2017-Jul-16 07:01N 44°51' W 002°45'5 9.7
2017-Jul-16 06:31N 44°55' W 002°48'5 9.3
2017-Jul-16 06:00N 44°59' W 002°52'5 8.9
2017-Jul-16 05:30N 45°03' W 002°53'4 8.4
2017-Jul-16 05:01N 45°07' W 002°54'5 9.1
2017-Jul-16 04:31N 45°10' W 002°60'5 9.3
2017-Jul-16 04:01N 45°12' W 003°06'5 9.2
2017-Jul-16 03:30N 45°13' W 003°12'4 8.9
2017-Jul-16 03:01N 45°15' W 003°18'4 8.7
2017-Jul-16 02:30N 45°16' W 003°23'4 8.7
2017-Jul-16 02:01N 45°18' W 003°29'4 8.9
2017-Jul-16 01:31N 45°20' W 003°35'5 9.2
2017-Jul-16 01:00N 45°22' W 003°41'5 9.2
2017-Jul-16 00:30N 45°23' W 003°47'17 8.8
2017-Jul-15 22:31N 45°30' W 004°10'0 8.8
2017-Jul-15 22:29N 45°30' W 004°11'5 8.9
2017-Jul-15 21:58N 45°32' W 004°17'4 8.9
2017-Jul-15 21:30N 45°34' W 004°22'5 9.2
2017-Jul-15 21:01N 45°37' W 004°27'4 7.8
2017-Jul-15 20:30N 45°38' W 004°32'4 8.6
2017-Jul-15 20:00N 45°38' W 004°38'5 8.4
2017-Jul-15 19:25N 45°39' W 004°45'4 8.7
2017-Jul-15 19:00N 45°41' W 004°50'2 4.9
2017-Jul-15 18:30N 45°41' W 004°53'4 7.3
2017-Jul-15 18:00N 45°38' W 004°51'6 4.4
2017-Jul-15 16:41N 45°40' W 004°44'1 7.2
2017-Jul-15 16:30N 45°40' W 004°42'5 6.0
2017-Jul-15 15:40N 45°39' W 004°35'1 7.8
2017-Jul-15 15:30N 45°38' W 004°34'  
Track history (hours):
 
Tides and Currents Weather Stations Pressure Air Temp Water Temp Dewpoint Dewpoint Depression Visibility Wind Speed Wind Dir Waves Ship Positions

Arrantzale

Last reported at 2017-Jul-24 04:30 UTC. Time now 2017-Jul-24 04:50 UTC.
Position N 43°23' W 001°47'.

Length 32 m.

Type: Fishing. MMSI: 224065290.

Date/timePositionNaut miles runAvg speedWind from/ knotsBaromVisibWave heightAir tempDewpointWater temp
2017-Jul-24 04:30N 43°23' W 001°47'0 0.0
2017-Jul-24 04:00N 43°23' W 001°47'0 0.0
2017-Jul-24 03:30N 43°23' W 001°47'0 0.0
2017-Jul-24 02:59N 43°23' W 001°48'0 0.0
2017-Jul-24 02:29N 43°23' W 001°48'0 0.0
2017-Jul-24 02:00N 43°23' W 001°48'1 2.9
2017-Jul-24 01:30N 43°24' W 001°49'  
2017-Jul-18 17:11N 44°53' W 002°36'60 6.9
2017-Jul-18 08:25N 43°57' W 002°08'4 8.7
2017-Jul-18 08:00N 43°53' W 002°06'4 8.8
2017-Jul-18 07:30N 43°50' W 002°03'4 8.5
2017-Jul-18 07:00N 43°46' W 001°60'4 8.5
2017-Jul-18 06:30N 43°42' W 001°57'4 8.4
2017-Jul-18 06:00N 43°39' W 001°53'9 8.1
2017-Jul-18 04:54N 43°31' W 001°47'2 6.1
2017-Jul-18 04:30N 43°29' W 001°48'1 2.0
2017-Jul-18 04:01N 43°29' W 001°46'0 0.5
2017-Jul-18 03:30N 43°29' W 001°46'1 1.7
2017-Jul-18 03:00N 43°29' W 001°47'2 2.9
2017-Jul-18 02:29N 43°27' W 001°48'0 0.3
2017-Jul-18 02:00N 43°27' W 001°48'0 0.3
2017-Jul-18 01:30N 43°27' W 001°48'1 1.8
2017-Jul-18 00:45N 43°26' W 001°48'2 8.1
2017-Jul-18 00:31N 43°24' W 001°47'1 2.1
2017-Jul-18 00:00N 43°23' W 001°48'0 0.0
2017-Jul-17 23:30N 43°23' W 001°48'0 0.0
2017-Jul-17 23:01N 43°23' W 001°48'0 0.0
2017-Jul-17 22:31N 43°23' W 001°48'0 0.0
2017-Jul-17 22:00N 43°23' W 001°48'0 0.0
2017-Jul-17 21:31N 43°23' W 001°48'0 0.0
2017-Jul-17 21:01N 43°23' W 001°48'0 0.0
2017-Jul-17 20:30N 43°23' W 001°48'0 0.0
2017-Jul-17 19:48N 43°23' W 001°48'0 0.3
2017-Jul-17 19:30N 43°23' W 001°47'45 3.4
2017-Jul-17 06:18N 44°08' W 001°55'3 8.8
2017-Jul-17 05:59N 44°06' W 001°52'38 3.9
2017-Jul-16 20:15N 43°28' W 001°46'310.0
2017-Jul-16 19:59N 43°25' W 001°47'2 5.1
2017-Jul-16 19:30N 43°23' W 001°48'0 0.0
2017-Jul-16 19:00N 43°23' W 001°48'0 0.0
2017-Jul-16 18:30N 43°23' W 001°48'0 0.0
2017-Jul-16 18:00N 43°23' W 001°48'1 2.1
2017-Jul-16 17:30N 43°24' W 001°48'610.4
2017-Jul-16 16:57N 43°29' W 001°51'610.5
2017-Jul-16 16:22N 43°35' W 001°55'610.5
2017-Jul-16 15:48N 43°40' W 001°59'410.4
2017-Jul-16 15:27N 43°43' W 002°02'59 9.7
2017-Jul-16 09:20N 44°37' W 002°37'5 6.0
2017-Jul-16 08:28N 44°41' W 002°40'4 6.5
2017-Jul-16 07:48N 44°46' W 002°40'2 5.5
2017-Jul-16 07:30N 44°47' W 002°41'5 9.4
2017-Jul-16 07:01N 44°51' W 002°45'5 9.7
2017-Jul-16 06:31N 44°55' W 002°48'5 9.3
2017-Jul-16 06:00N 44°59' W 002°52'5 8.9
2017-Jul-16 05:30N 45°03' W 002°53'4 8.4
2017-Jul-16 05:01N 45°07' W 002°54'5 9.1
2017-Jul-16 04:31N 45°10' W 002°60'5 9.3
2017-Jul-16 04:01N 45°12' W 003°06'5 9.2
2017-Jul-16 03:30N 45°13' W 003°12'4 8.9
2017-Jul-16 03:01N 45°15' W 003°18'4 8.7
2017-Jul-16 02:30N 45°16' W 003°23'4 8.7
2017-Jul-16 02:01N 45°18' W 003°29'4 8.9
2017-Jul-16 01:31N 45°20' W 003°35'5 9.2
2017-Jul-16 01:00N 45°22' W 003°41'5 9.2
2017-Jul-16 00:30N 45°23' W 003°47'17 8.8
2017-Jul-15 22:31N 45°30' W 004°10'0 8.8
2017-Jul-15 22:29N 45°30' W 004°11'5 8.9
2017-Jul-15 21:58N 45°32' W 004°17'4 8.9
2017-Jul-15 21:30N 45°34' W 004°22'5 9.2
2017-Jul-15 21:01N 45°37' W 004°27'4 7.8
2017-Jul-15 20:30N 45°38' W 004°32'4 8.6
2017-Jul-15 20:00N 45°38' W 004°38'5 8.4
2017-Jul-15 19:25N 45°39' W 004°45'4 8.7
2017-Jul-15 19:00N 45°41' W 004°50'2 4.9
2017-Jul-15 18:30N 45°41' W 004°53'4 7.3
2017-Jul-15 18:00N 45°38' W 004°51'6 4.4
2017-Jul-15 16:41N 45°40' W 004°44'1 7.2
2017-Jul-15 16:30N 45°40' W 004°42'5 6.0
2017-Jul-15 15:40N 45°39' W 004°35'1 7.8
2017-Jul-15 15:30N 45°38' W 004°34'  

Dump ship's entire track history